sensor_id;sensor_type;location;lat;lon;timestamp;temperature;humidity
33994;DHT22;20673;48.980;8.138;2023-12-28T00:01:41;1.90;99.90
33994;DHT22;20673;48.980;8.138;2023-12-28T00:04:07;1.90;99.90
33994;DHT22;20673;48.980;8.138;2023-12-28T00:06:33;1.80;99.90
33994;DHT22;20673;48.980;8.138;2023-12-28T00:09:00;1.80;99.90
33994;DHT22;20673;48.980;8.138;2023-12-28T00:11:27;1.80;99.90
33994;DHT22;20673;48.980;8.138;2023-12-28T00:13:54;1.70;99.90
33994;DHT22;20673;48.980;8.138;2023-12-28T00:16:20;1.70;99.90
33994;DHT22;20673;48.980;8.138;2023-12-28T00:18:46;1.70;99.90
33994;DHT22;20673;48.980;8.138;2023-12-28T00:21:12;1.70;99.90
33994;DHT22;20673;48.980;8.138;2023-12-28T00:23:38;1.70;99.90
33994;DHT22;20673;48.980;8.138;2023-12-28T00:26:04;1.70;99.90
33994;DHT22;20673;48.980;8.138;2023-12-28T00:28:30;1.80;99.90
33994;DHT22;20673;48.980;8.138;2023-12-28T00:30:56;1.70;99.90
33994;DHT22;20673;48.980;8.138;2023-12-28T00:33:22;1.60;99.90
33994;DHT22;20673;48.980;8.138;2023-12-28T00:35:49;1.60;99.90
33994;DHT22;20673;48.980;8.138;2023-12-28T00:38:15;1.60;99.90
33994;DHT22;20673;48.980;8.138;2023-12-28T00:40:41;1.50;99.90
33994;DHT22;20673;48.980;8.138;2023-12-28T00:43:07;1.60;99.90
33994;DHT22;20673;48.980;8.138;2023-12-28T00:45:33;1.70;99.90
33994;DHT22;20673;48.980;8.138;2023-12-28T00:47:59;1.60;99.90
33994;DHT22;20673;48.980;8.138;2023-12-28T00:50:25;1.70;99.90
33994;DHT22;20673;48.980;8.138;2023-12-28T00:52:53;1.60;99.90
33994;DHT22;20673;48.980;8.138;2023-12-28T00:55:19;1.60;99.90
33994;DHT22;20673;48.980;8.138;2023-12-28T00:57:45;1.60;99.90
33994;DHT22;20673;48.980;8.138;2023-12-28T01:00:11;1.50;99.90
33994;DHT22;20673;48.980;8.138;2023-12-28T01:02:37;1.50;99.90
33994;DHT22;20673;48.980;8.138;2023-12-28T01:05:04;1.60;99.90
33994;DHT22;20673;48.980;8.138;2023-12-28T01:07:30;1.60;99.90
33994;DHT22;20673;48.980;8.138;2023-12-28T01:09:56;1.60;99.90
33994;DHT22;20673;48.980;8.138;2023-12-28T01:12:22;1.60;99.90
33994;DHT22;20673;48.980;8.138;2023-12-28T01:14:48;1.50;99.90
33994;DHT22;20673;48.980;8.138;2023-12-28T01:17:14;1.50;99.90
33994;DHT22;20673;48.980;8.138;2023-12-28T01:19:40;1.50;99.90
33994;DHT22;20673;48.980;8.138;2023-12-28T01:22:06;1.50;99.90
33994;DHT22;20673;48.980;8.138;2023-12-28T01:24:33;1.60;99.90
33994;DHT22;20673;48.980;8.138;2023-12-28T01:26:59;1.40;99.90
33994;DHT22;20673;48.980;8.138;2023-12-28T01:29:25;1.50;99.90
33994;DHT22;20673;48.980;8.138;2023-12-28T01:31:51;1.50;99.90
33994;DHT22;20673;48.980;8.138;2023-12-28T01:34:17;1.40;99.90
33994;DHT22;20673;48.980;8.138;2023-12-28T01:36:43;1.40;99.90
33994;DHT22;20673;48.980;8.138;2023-12-28T01:39:11;1.40;99.90
33994;DHT22;20673;48.980;8.138;2023-12-28T01:41:37;1.40;99.90
33994;DHT22;20673;48.980;8.138;2023-12-28T01:44:03;1.40;99.90
33994;DHT22;20673;48.980;8.138;2023-12-28T01:46:30;1.40;99.90
33994;DHT22;20673;48.980;8.138;2023-12-28T01:48:56;1.40;99.90
33994;DHT22;20673;48.980;8.138;2023-12-28T01:51:23;1.50;99.90
33994;DHT22;20673;48.980;8.138;2023-12-28T01:53:50;1.60;99.90
33994;DHT22;20673;48.980;8.138;2023-12-28T01:56:18;1.60;99.90
33994;DHT22;20673;48.980;8.138;2023-12-28T01:58:46;1.70;99.90
33994;DHT22;20673;48.980;8.138;2023-12-28T02:01:15;1.80;99.90
33994;DHT22;20673;48.980;8.138;2023-12-28T02:03:42;1.90;99.90
33994;DHT22;20673;48.980;8.138;2023-12-28T02:06:09;1.90;99.90
33994;DHT22;20673;48.980;8.138;2023-12-28T02:08:36;2.00;99.90
33994;DHT22;20673;48.980;8.138;2023-12-28T02:11:02;2.10;99.90
33994;DHT22;20673;48.980;8.138;2023-12-28T02:13:29;2.10;99.90
33994;DHT22;20673;48.980;8.138;2023-12-28T02:16:06;2.10;99.90
33994;DHT22;20673;48.980;8.138;2023-12-28T02:18:43;2.20;99.90
33994;DHT22;20673;48.980;8.138;2023-12-28T02:21:13;2.30;99.90
33994;DHT22;20673;48.980;8.138;2023-12-28T02:23:39;2.40;99.90
33994;DHT22;20673;48.980;8.138;2023-12-28T02:26:19;2.40;99.90
33994;DHT22;20673;48.980;8.138;2023-12-28T02:28:43;2.50;99.90
33994;DHT22;20673;48.980;8.138;2023-12-28T02:31:14;2.70;99.90
33994;DHT22;20673;48.980;8.138;2023-12-28T02:33:54;2.70;99.90
33994;DHT22;20673;48.980;8.138;2023-12-28T02:36:23;2.80;99.90
33994;DHT22;20673;48.980;8.138;2023-12-28T02:38:52;2.90;99.90
33994;DHT22;20673;48.980;8.138;2023-12-28T02:41:22;3.10;99.90
33994;DHT22;20673;48.980;8.138;2023-12-28T02:43:48;3.30;99.90
33994;DHT22;20673;48.980;8.138;2023-12-28T02:46:15;3.60;99.90
33994;DHT22;20673;48.980;8.138;2023-12-28T02:48:42;3.80;99.90
33994;DHT22;20673;48.980;8.138;2023-12-28T02:51:08;3.90;99.90
33994;DHT22;20673;48.980;8.138;2023-12-28T02:53:34;4.00;99.90
33994;DHT22;20673;48.980;8.138;2023-12-28T02:56:00;4.00;99.90
33994;DHT22;20673;48.980;8.138;2023-12-28T02:58:26;4.10;99.90
33994;DHT22;20673;48.980;8.138;2023-12-28T03:00:52;4.20;99.90
33994;DHT22;20673;48.980;8.138;2023-12-28T03:03:18;4.30;99.90
33994;DHT22;20673;48.980;8.138;2023-12-28T03:05:44;4.40;99.90
33994;DHT22;20673;48.980;8.138;2023-12-28T03:08:11;4.50;99.90
33994;DHT22;20673;48.980;8.138;2023-12-28T03:10:37;4.60;99.90
33994;DHT22;20673;48.980;8.138;2023-12-28T03:13:04;4.70;99.90
33994;DHT22;20673;48.980;8.138;2023-12-28T03:15:30;4.80;99.90
33994;DHT22;20673;48.980;8.138;2023-12-28T03:17:56;4.90;99.90
33994;DHT22;20673;48.980;8.138;2023-12-28T03:20:22;5.00;99.90
33994;DHT22;20673;48.980;8.138;2023-12-28T03:22:48;5.20;99.90
33994;DHT22;20673;48.980;8.138;2023-12-28T03:25:14;5.30;99.90
33994;DHT22;20673;48.980;8.138;2023-12-28T03:27:40;5.30;99.90
33994;DHT22;20673;48.980;8.138;2023-12-28T03:30:07;5.50;99.90
33994;DHT22;20673;48.980;8.138;2023-12-28T03:32:34;5.60;99.90
33994;DHT22;20673;48.980;8.138;2023-12-28T03:35:00;5.80;99.90
33994;DHT22;20673;48.980;8.138;2023-12-28T03:37:26;5.90;99.90
33994;DHT22;20673;48.980;8.138;2023-12-28T03:39:52;6.00;99.90
33994;DHT22;20673;48.980;8.138;2023-12-28T03:42:18;5.90;99.90
33994;DHT22;20673;48.980;8.138;2023-12-28T03:44:44;5.90;99.90
33994;DHT22;20673;48.980;8.138;2023-12-28T03:47:10;5.80;99.90
33994;DHT22;20673;48.980;8.138;2023-12-28T03:49:36;5.80;99.90
33994;DHT22;20673;48.980;8.138;2023-12-28T03:52:03;5.70;99.90
33994;DHT22;20673;48.980;8.138;2023-12-28T03:54:29;5.70;99.90
33994;DHT22;20673;48.980;8.138;2023-12-28T03:56:55;5.70;99.90
33994;DHT22;20673;48.980;8.138;2023-12-28T03:59:21;5.60;99.90
33994;DHT22;20673;48.980;8.138;2023-12-28T04:01:47;5.60;99.90
33994;DHT22;20673;48.980;8.138;2023-12-28T04:04:14;5.50;99.90
33994;DHT22;20673;48.980;8.138;2023-12-28T04:06:40;5.50;99.90
33994;DHT22;20673;48.980;8.138;2023-12-28T04:09:07;5.40;99.90
33994;DHT22;20673;48.980;8.138;2023-12-28T04:11:33;5.40;99.90
33994;DHT22;20673;48.980;8.138;2023-12-28T04:14:00;5.40;99.90
33994;DHT22;20673;48.980;8.138;2023-12-28T04:16:26;5.30;99.90
33994;DHT22;20673;48.980;8.138;2023-12-28T04:18:52;5.40;99.90
33994;DHT22;20673;48.980;8.138;2023-12-28T04:21:18;5.40;99.90
33994;DHT22;20673;48.980;8.138;2023-12-28T04:23:44;5.30;99.90
33994;DHT22;20673;48.980;8.138;2023-12-28T04:26:10;5.30;99.90
33994;DHT22;20673;48.980;8.138;2023-12-28T04:28:36;5.30;99.90
33994;DHT22;20673;48.980;8.138;2023-12-28T04:31:04;5.40;99.90
33994;DHT22;20673;48.980;8.138;2023-12-28T04:33:31;5.40;99.90
33994;DHT22;20673;48.980;8.138;2023-12-28T04:36:00;5.70;99.90
33994;DHT22;20673;48.980;8.138;2023-12-28T04:38:29;6.10;99.90
33994;DHT22;20673;48.980;8.138;2023-12-28T04:40:57;6.50;99.90
33994;DHT22;20673;48.980;8.138;2023-12-28T04:43:24;6.60;99.90
33994;DHT22;20673;48.980;8.138;2023-12-28T04:45:51;6.80;99.90
33994;DHT22;20673;48.980;8.138;2023-12-28T04:48:17;6.90;99.90
33994;DHT22;20673;48.980;8.138;2023-12-28T04:50:49;6.90;99.90
33994;DHT22;20673;48.980;8.138;2023-12-28T04:53:16;7.00;99.90
33994;DHT22;20673;48.980;8.138;2023-12-28T04:55:42;7.00;99.90
33994;DHT22;20673;48.980;8.138;2023-12-28T04:58:10;7.00;99.90
33994;DHT22;20673;48.980;8.138;2023-12-28T05:00:37;7.10;99.90
33994;DHT22;20673;48.980;8.138;2023-12-28T05:03:04;7.00;99.90
33994;DHT22;20673;48.980;8.138;2023-12-28T05:05:32;7.10;99.90
33994;DHT22;20673;48.980;8.138;2023-12-28T05:07:58;7.10;99.90
33994;DHT22;20673;48.980;8.138;2023-12-28T05:10:24;7.10;99.90
33994;DHT22;20673;48.980;8.138;2023-12-28T05:12:50;7.30;99.90
33994;DHT22;20673;48.980;8.138;2023-12-28T05:15:16;7.30;99.90
33994;DHT22;20673;48.980;8.138;2023-12-28T05:17:44;7.30;99.90
33994;DHT22;20673;48.980;8.138;2023-12-28T05:20:11;7.40;99.90
33994;DHT22;20673;48.980;8.138;2023-12-28T05:22:37;7.50;99.90
33994;DHT22;20673;48.980;8.138;2023-12-28T05:25:03;7.60;99.90
33994;DHT22;20673;48.980;8.138;2023-12-28T05:27:30;7.70;99.90
33994;DHT22;20673;48.980;8.138;2023-12-28T05:29:56;7.60;99.90
33994;DHT22;20673;48.980;8.138;2023-12-28T05:32:22;7.70;99.90
33994;DHT22;20673;48.980;8.138;2023-12-28T05:34:48;7.70;99.90
33994;DHT22;20673;48.980;8.138;2023-12-28T05:37:15;7.80;99.90
33994;DHT22;20673;48.980;8.138;2023-12-28T05:39:41;7.90;99.90
33994;DHT22;20673;48.980;8.138;2023-12-28T05:42:07;7.90;99.90
33994;DHT22;20673;48.980;8.138;2023-12-28T05:44:33;8.00;99.90
33994;DHT22;20673;48.980;8.138;2023-12-28T05:47:00;8.00;99.90
33994;DHT22;20673;48.980;8.138;2023-12-28T05:49:26;8.10;99.90
33994;DHT22;20673;48.980;8.138;2023-12-28T05:51:54;8.20;99.90
33994;DHT22;20673;48.980;8.138;2023-12-28T05:54:20;8.30;99.90
33994;DHT22;20673;48.980;8.138;2023-12-28T05:56:46;8.40;99.90
33994;DHT22;20673;48.980;8.138;2023-12-28T05:59:12;8.40;99.90
33994;DHT22;20673;48.980;8.138;2023-12-28T06:01:42;8.40;99.90
33994;DHT22;20673;48.980;8.138;2023-12-28T06:04:09;8.40;99.90
33994;DHT22;20673;48.980;8.138;2023-12-28T06:06:35;8.40;99.90
33994;DHT22;20673;48.980;8.138;2023-12-28T06:09:02;8.40;99.90
33994;DHT22;20673;48.980;8.138;2023-12-28T06:11:29;8.30;99.90
33994;DHT22;20673;48.980;8.138;2023-12-28T06:13:55;8.20;99.90
33994;DHT22;20673;48.980;8.138;2023-12-28T06:16:21;8.10;99.90
33994;DHT22;20673;48.980;8.138;2023-12-28T06:18:48;8.00;99.90
33994;DHT22;20673;48.980;8.138;2023-12-28T06:21:14;7.90;99.90
33994;DHT22;20673;48.980;8.138;2023-12-28T06:23:40;7.90;99.90
33994;DHT22;20673;48.980;8.138;2023-12-28T06:26:06;7.80;99.90
33994;DHT22;20673;48.980;8.138;2023-12-28T06:28:33;7.80;99.90
33994;DHT22;20673;48.980;8.138;2023-12-28T06:30:59;7.80;99.90
33994;DHT22;20673;48.980;8.138;2023-12-28T06:33:29;7.90;99.90
33994;DHT22;20673;48.980;8.138;2023-12-28T06:35:55;7.80;99.90
33994;DHT22;20673;48.980;8.138;2023-12-28T06:38:24;7.80;99.90
33994;DHT22;20673;48.980;8.138;2023-12-28T06:40:51;7.90;99.90
33994;DHT22;20673;48.980;8.138;2023-12-28T06:43:17;7.90;99.90
33994;DHT22;20673;48.980;8.138;2023-12-28T06:45:43;8.00;99.90
33994;DHT22;20673;48.980;8.138;2023-12-28T06:48:10;7.90;99.90
33994;DHT22;20673;48.980;8.138;2023-12-28T06:50:36;7.80;99.90
33994;DHT22;20673;48.980;8.138;2023-12-28T06:53:02;7.80;99.90
33994;DHT22;20673;48.980;8.138;2023-12-28T06:55:28;7.80;99.90
33994;DHT22;20673;48.980;8.138;2023-12-28T06:57:54;7.90;99.90
33994;DHT22;20673;48.980;8.138;2023-12-28T07:00:20;7.80;99.90
33994;DHT22;20673;48.980;8.138;2023-12-28T07:02:46;7.80;99.90
33994;DHT22;20673;48.980;8.138;2023-12-28T07:05:12;7.80;99.90
33994;DHT22;20673;48.980;8.138;2023-12-28T07:07:39;7.80;99.90
33994;DHT22;20673;48.980;8.138;2023-12-28T07:10:06;7.70;99.90
33994;DHT22;20673;48.980;8.138;2023-12-28T07:12:32;7.60;99.90
33994;DHT22;20673;48.980;8.138;2023-12-28T07:14:59;7.70;99.90
33994;DHT22;20673;48.980;8.138;2023-12-28T07:17:25;7.60;99.90
33994;DHT22;20673;48.980;8.138;2023-12-28T07:19:51;7.60;99.90
33994;DHT22;20673;48.980;8.138;2023-12-28T07:22:17;7.50;99.90
33994;DHT22;20673;48.980;8.138;2023-12-28T07:24:43;7.50;99.90
33994;DHT22;20673;48.980;8.138;2023-12-28T07:27:09;7.60;99.90
33994;DHT22;20673;48.980;8.138;2023-12-28T07:29:35;7.50;99.90
33994;DHT22;20673;48.980;8.138;2023-12-28T07:32:01;7.50;99.90
33994;DHT22;20673;48.980;8.138;2023-12-28T07:34:27;7.70;99.90
33994;DHT22;20673;48.980;8.138;2023-12-28T07:36:53;7.80;99.90
33994;DHT22;20673;48.980;8.138;2023-12-28T07:39:20;7.80;99.90
33994;DHT22;20673;48.980;8.138;2023-12-28T07:41:46;7.80;99.90
33994;DHT22;20673;48.980;8.138;2023-12-28T07:44:12;7.80;99.90
33994;DHT22;20673;48.980;8.138;2023-12-28T07:46:38;7.90;99.90
33994;DHT22;20673;48.980;8.138;2023-12-28T07:49:04;8.00;99.90
33994;DHT22;20673;48.980;8.138;2023-12-28T07:51:30;8.10;99.90
33994;DHT22;20673;48.980;8.138;2023-12-28T07:53:56;8.20;99.90
33994;DHT22;20673;48.980;8.138;2023-12-28T07:56:22;8.30;99.90
33994;DHT22;20673;48.980;8.138;2023-12-28T07:58:48;8.40;99.90
33994;DHT22;20673;48.980;8.138;2023-12-28T08:01:14;8.40;99.90
33994;DHT22;20673;48.980;8.138;2023-12-28T08:03:40;8.40;99.90
33994;DHT22;20673;48.980;8.138;2023-12-28T08:06:07;8.40;99.90
33994;DHT22;20673;48.980;8.138;2023-12-28T08:08:33;8.30;99.90
33994;DHT22;20673;48.980;8.138;2023-12-28T08:10:59;8.40;99.90
33994;DHT22;20673;48.980;8.138;2023-12-28T08:13:25;8.40;99.90
33994;DHT22;20673;48.980;8.138;2023-12-28T08:15:51;8.40;99.90
33994;DHT22;20673;48.980;8.138;2023-12-28T08:18:17;8.50;99.90
33994;DHT22;20673;48.980;8.138;2023-12-28T08:20:43;8.50;99.90
33994;DHT22;20673;48.980;8.138;2023-12-28T08:23:09;8.50;99.90
33994;DHT22;20673;48.980;8.138;2023-12-28T08:25:36;8.40;99.90
33994;DHT22;20673;48.980;8.138;2023-12-28T08:28:02;8.30;99.90
33994;DHT22;20673;48.980;8.138;2023-12-28T08:30:28;8.30;99.90
33994;DHT22;20673;48.980;8.138;2023-12-28T08:32:54;8.30;99.90
33994;DHT22;20673;48.980;8.138;2023-12-28T08:35:20;8.20;99.90
33994;DHT22;20673;48.980;8.138;2023-12-28T08:37:46;8.30;99.90
33994;DHT22;20673;48.980;8.138;2023-12-28T08:40:13;8.30;99.90
33994;DHT22;20673;48.980;8.138;2023-12-28T08:42:39;8.30;99.90
33994;DHT22;20673;48.980;8.138;2023-12-28T08:45:06;8.20;99.90
33994;DHT22;20673;48.980;8.138;2023-12-28T08:47:32;8.20;99.90
33994;DHT22;20673;48.980;8.138;2023-12-28T08:49:58;8.20;99.90
33994;DHT22;20673;48.980;8.138;2023-12-28T08:52:24;8.20;99.90
33994;DHT22;20673;48.980;8.138;2023-12-28T08:54:50;8.20;99.90
33994;DHT22;20673;48.980;8.138;2023-12-28T08:57:16;8.10;99.90
33994;DHT22;20673;48.980;8.138;2023-12-28T08:59:43;8.10;99.90
33994;DHT22;20673;48.980;8.138;2023-12-28T09:02:09;8.10;99.90
33994;DHT22;20673;48.980;8.138;2023-12-28T09:04:35;8.10;99.90
33994;DHT22;20673;48.980;8.138;2023-12-28T09:07:01;8.10;99.90
33994;DHT22;20673;48.980;8.138;2023-12-28T09:09:27;8.10;99.90
33994;DHT22;20673;48.980;8.138;2023-12-28T09:11:53;8.10;99.90
33994;DHT22;20673;48.980;8.138;2023-12-28T09:14:20;8.20;99.90
33994;DHT22;20673;48.980;8.138;2023-12-28T09:16:47;8.20;99.90
33994;DHT22;20673;48.980;8.138;2023-12-28T09:19:13;8.10;99.90
33994;DHT22;20673;48.980;8.138;2023-12-28T09:21:40;8.10;99.90
33994;DHT22;20673;48.980;8.138;2023-12-28T09:24:07;8.10;99.90
33994;DHT22;20673;48.980;8.138;2023-12-28T09:26:33;8.10;99.90
33994;DHT22;20673;48.980;8.138;2023-12-28T09:28:59;8.20;99.90
33994;DHT22;20673;48.980;8.138;2023-12-28T09:31:25;8.20;99.90
33994;DHT22;20673;48.980;8.138;2023-12-28T09:33:53;8.30;99.90
33994;DHT22;20673;48.980;8.138;2023-12-28T09:36:19;8.30;99.90
33994;DHT22;20673;48.980;8.138;2023-12-28T09:38:45;8.30;99.90
33994;DHT22;20673;48.980;8.138;2023-12-28T09:41:12;8.40;99.90
33994;DHT22;20673;48.980;8.138;2023-12-28T09:43:53;8.40;99.90
33994;DHT22;20673;48.980;8.138;2023-12-28T09:46:18;8.60;99.90
33994;DHT22;20673;48.980;8.138;2023-12-28T09:48:45;8.60;99.90
33994;DHT22;20673;48.980;8.138;2023-12-28T09:51:12;8.60;99.90
33994;DHT22;20673;48.980;8.138;2023-12-28T09:53:38;8.80;99.90
33994;DHT22;20673;48.980;8.138;2023-12-28T09:56:05;8.90;99.90
33994;DHT22;20673;48.980;8.138;2023-12-28T09:58:33;8.90;99.90
33994;DHT22;20673;48.980;8.138;2023-12-28T10:01:02;9.10;99.90
33994;DHT22;20673;48.980;8.138;2023-12-28T10:03:30;9.10;99.90
33994;DHT22;20673;48.980;8.138;2023-12-28T10:05:56;9.10;99.90
33994;DHT22;20673;48.980;8.138;2023-12-28T10:08:22;9.10;99.90
33994;DHT22;20673;48.980;8.138;2023-12-28T10:10:49;9.10;99.90
33994;DHT22;20673;48.980;8.138;2023-12-28T10:13:20;9.10;99.90
33994;DHT22;20673;48.980;8.138;2023-12-28T10:15:48;9.10;99.90
33994;DHT22;20673;48.980;8.138;2023-12-28T10:18:17;9.10;99.90
33994;DHT22;20673;48.980;8.138;2023-12-28T10:20:54;9.10;99.90
33994;DHT22;20673;48.980;8.138;2023-12-28T10:23:20;9.10;99.90
33994;DHT22;20673;48.980;8.138;2023-12-28T10:25:47;8.90;99.90
33994;DHT22;20673;48.980;8.138;2023-12-28T10:28:15;8.80;99.90
33994;DHT22;20673;48.980;8.138;2023-12-28T10:30:44;8.90;99.90
33994;DHT22;20673;48.980;8.138;2023-12-28T10:33:10;8.80;99.90
33994;DHT22;20673;48.980;8.138;2023-12-28T10:35:36;8.80;99.90
33994;DHT22;20673;48.980;8.138;2023-12-28T10:38:04;8.80;99.90
33994;DHT22;20673;48.980;8.138;2023-12-28T10:40:32;8.70;99.90
33994;DHT22;20673;48.980;8.138;2023-12-28T10:43:01;8.70;99.90
33994;DHT22;20673;48.980;8.138;2023-12-28T10:45:31;8.80;99.90
33994;DHT22;20673;48.980;8.138;2023-12-28T10:48:10;8.80;99.90
33994;DHT22;20673;48.980;8.138;2023-12-28T10:50:49;8.80;99.90
33994;DHT22;20673;48.980;8.138;2023-12-28T10:53:29;8.80;99.90
33994;DHT22;20673;48.980;8.138;2023-12-28T10:59:13;8.90;99.90
33994;DHT22;20673;48.980;8.138;2023-12-28T11:01:46;8.90;99.90
33994;DHT22;20673;48.980;8.138;2023-12-28T11:07:15;9.00;99.90
33994;DHT22;20673;48.980;8.138;2023-12-28T11:09:43;9.00;99.90
33994;DHT22;20673;48.980;8.138;2023-12-28T11:12:11;9.00;99.90
33994;DHT22;20673;48.980;8.138;2023-12-28T11:14:39;9.10;99.90
33994;DHT22;20673;48.980;8.138;2023-12-28T11:17:06;9.10;99.90
33994;DHT22;20673;48.980;8.138;2023-12-28T11:19:35;9.10;99.90
33994;DHT22;20673;48.980;8.138;2023-12-28T11:22:03;9.10;99.90
33994;DHT22;20673;48.980;8.138;2023-12-28T11:24:31;9.10;99.90
33994;DHT22;20673;48.980;8.138;2023-12-28T11:26:58;9.10;99.90
33994;DHT22;20673;48.980;8.138;2023-12-28T11:29:24;9.20;99.90
33994;DHT22;20673;48.980;8.138;2023-12-28T11:31:51;9.20;99.90
33994;DHT22;20673;48.980;8.138;2023-12-28T11:34:18;9.10;99.90
33994;DHT22;20673;48.980;8.138;2023-12-28T11:36:49;9.20;99.90
33994;DHT22;20673;48.980;8.138;2023-12-28T11:39:26;9.20;99.90
33994;DHT22;20673;48.980;8.138;2023-12-28T11:42:03;9.20;99.90
33994;DHT22;20673;48.980;8.138;2023-12-28T11:44:40;9.20;99.90
33994;DHT22;20673;48.980;8.138;2023-12-28T11:47:14;9.20;99.90
33994;DHT22;20673;48.980;8.138;2023-12-28T11:49:41;9.20;99.90
33994;DHT22;20673;48.980;8.138;2023-12-28T11:52:09;9.20;99.90
33994;DHT22;20673;48.980;8.138;2023-12-28T11:54:36;9.10;99.90
33994;DHT22;20673;48.980;8.138;2023-12-28T11:57:03;9.10;99.90
33994;DHT22;20673;48.980;8.138;2023-12-28T11:59:31;9.10;99.90
33994;DHT22;20673;48.980;8.138;2023-12-28T12:01:57;9.10;99.90
33994;DHT22;20673;48.980;8.138;2023-12-28T12:04:23;9.10;99.90
33994;DHT22;20673;48.980;8.138;2023-12-28T12:06:49;9.10;99.90
33994;DHT22;20673;48.980;8.138;2023-12-28T12:09:17;9.20;99.90
33994;DHT22;20673;48.980;8.138;2023-12-28T12:11:48;9.20;99.90
33994;DHT22;20673;48.980;8.138;2023-12-28T12:14:14;9.20;99.90
33994;DHT22;20673;48.980;8.138;2023-12-28T12:16:41;9.30;99.90
33994;DHT22;20673;48.980;8.138;2023-12-28T12:19:07;9.30;99.90
33994;DHT22;20673;48.980;8.138;2023-12-28T12:21:34;9.30;99.90
33994;DHT22;20673;48.980;8.138;2023-12-28T12:24:00;9.30;99.90
33994;DHT22;20673;48.980;8.138;2023-12-28T12:26:28;9.30;99.90
33994;DHT22;20673;48.980;8.138;2023-12-28T12:28:56;9.40;99.90
33994;DHT22;20673;48.980;8.138;2023-12-28T12:31:22;9.60;99.90
33994;DHT22;20673;48.980;8.138;2023-12-28T12:33:49;9.60;99.90
33994;DHT22;20673;48.980;8.138;2023-12-28T12:36:17;9.70;99.90
33994;DHT22;20673;48.980;8.138;2023-12-28T12:38:43;9.70;99.90
33994;DHT22;20673;48.980;8.138;2023-12-28T12:41:12;9.80;99.90
33994;DHT22;20673;48.980;8.138;2023-12-28T12:43:40;9.90;99.90
33994;DHT22;20673;48.980;8.138;2023-12-28T12:46:06;9.90;99.90
33994;DHT22;20673;48.980;8.138;2023-12-28T12:48:33;9.90;99.90
33994;DHT22;20673;48.980;8.138;2023-12-28T12:51:01;10.00;99.90
33994;DHT22;20673;48.980;8.138;2023-12-28T12:53:35;10.00;99.90
33994;DHT22;20673;48.980;8.138;2023-12-28T12:56:03;10.00;99.90
33994;DHT22;20673;48.980;8.138;2023-12-28T12:58:31;10.00;99.90
33994;DHT22;20673;48.980;8.138;2023-12-28T13:00:57;10.10;99.90
33994;DHT22;20673;48.980;8.138;2023-12-28T13:03:28;10.10;99.90
33994;DHT22;20673;48.980;8.138;2023-12-28T13:05:57;10.10;99.90
33994;DHT22;20673;48.980;8.138;2023-12-28T13:08:23;10.10;99.90
33994;DHT22;20673;48.980;8.138;2023-12-28T13:10:49;10.10;99.90
33994;DHT22;20673;48.980;8.138;2023-12-28T13:13:15;10.00;99.90
33994;DHT22;20673;48.980;8.138;2023-12-28T13:15:41;10.00;99.90
33994;DHT22;20673;48.980;8.138;2023-12-28T13:18:08;10.00;99.90
33994;DHT22;20673;48.980;8.138;2023-12-28T13:20:34;9.90;99.90
33994;DHT22;20673;48.980;8.138;2023-12-28T13:23:00;9.80;99.90
33994;DHT22;20673;48.980;8.138;2023-12-28T13:25:26;9.70;99.90
33994;DHT22;20673;48.980;8.138;2023-12-28T13:27:52;9.60;99.90
33994;DHT22;20673;48.980;8.138;2023-12-28T13:30:19;9.50;99.90
33994;DHT22;20673;48.980;8.138;2023-12-28T13:32:47;9.50;99.90
33994;DHT22;20673;48.980;8.138;2023-12-28T13:35:13;9.40;99.90
33994;DHT22;20673;48.980;8.138;2023-12-28T13:37:39;9.30;99.90
33994;DHT22;20673;48.980;8.138;2023-12-28T13:40:07;9.20;99.90
33994;DHT22;20673;48.980;8.138;2023-12-28T13:42:34;9.10;99.90
33994;DHT22;20673;48.980;8.138;2023-12-28T13:45:00;9.00;99.90
33994;DHT22;20673;48.980;8.138;2023-12-28T13:47:26;9.10;99.90
33994;DHT22;20673;48.980;8.138;2023-12-28T13:49:52;9.00;99.90
33994;DHT22;20673;48.980;8.138;2023-12-28T13:52:18;9.00;99.90
33994;DHT22;20673;48.980;8.138;2023-12-28T13:54:44;9.00;99.90
33994;DHT22;20673;48.980;8.138;2023-12-28T13:57:10;9.00;99.90
33994;DHT22;20673;48.980;8.138;2023-12-28T13:59:36;9.10;99.90
33994;DHT22;20673;48.980;8.138;2023-12-28T14:02:02;9.10;99.90
33994;DHT22;20673;48.980;8.138;2023-12-28T14:04:29;9.00;99.90
33994;DHT22;20673;48.980;8.138;2023-12-28T14:06:55;9.10;99.90
33994;DHT22;20673;48.980;8.138;2023-12-28T14:09:22;9.10;99.90
33994;DHT22;20673;48.980;8.138;2023-12-28T14:11:48;9.10;99.90
33994;DHT22;20673;48.980;8.138;2023-12-28T14:14:14;9.10;99.90
33994;DHT22;20673;48.980;8.138;2023-12-28T14:16:41;9.10;99.90
33994;DHT22;20673;48.980;8.138;2023-12-28T14:19:07;9.10;99.90
33994;DHT22;20673;48.980;8.138;2023-12-28T14:21:37;9.00;99.90
33994;DHT22;20673;48.980;8.138;2023-12-28T14:24:05;9.00;99.90
33994;DHT22;20673;48.980;8.138;2023-12-28T14:26:32;9.00;99.90
33994;DHT22;20673;48.980;8.138;2023-12-28T14:29:02;9.00;99.90
33994;DHT22;20673;48.980;8.138;2023-12-28T14:31:31;9.00;99.90
33994;DHT22;20673;48.980;8.138;2023-12-28T14:33:58;9.00;99.90
33994;DHT22;20673;48.980;8.138;2023-12-28T14:36:32;9.00;99.90
33994;DHT22;20673;48.980;8.138;2023-12-28T14:39:02;9.10;99.90
33994;DHT22;20673;48.980;8.138;2023-12-28T14:41:31;9.00;99.90
33994;DHT22;20673;48.980;8.138;2023-12-28T14:43:58;9.00;99.90
33994;DHT22;20673;48.980;8.138;2023-12-28T14:46:25;9.00;99.90
33994;DHT22;20673;48.980;8.138;2023-12-28T14:48:52;9.10;99.90
33994;DHT22;20673;48.980;8.138;2023-12-28T14:51:19;9.10;99.90
33994;DHT22;20673;48.980;8.138;2023-12-28T14:53:45;9.10;99.90
33994;DHT22;20673;48.980;8.138;2023-12-28T14:56:11;9.10;99.90
33994;DHT22;20673;48.980;8.138;2023-12-28T14:58:38;9.10;99.90
33994;DHT22;20673;48.980;8.138;2023-12-28T15:01:05;9.00;99.90
33994;DHT22;20673;48.980;8.138;2023-12-28T15:03:31;9.00;99.90
33994;DHT22;20673;48.980;8.138;2023-12-28T15:05:57;9.00;99.90
33994;DHT22;20673;48.980;8.138;2023-12-28T15:08:24;9.00;99.90
33994;DHT22;20673;48.980;8.138;2023-12-28T15:10:51;9.00;99.90
33994;DHT22;20673;48.980;8.138;2023-12-28T15:13:18;9.10;99.90
33994;DHT22;20673;48.980;8.138;2023-12-28T15:15:45;9.10;99.90
33994;DHT22;20673;48.980;8.138;2023-12-28T15:18:13;9.10;99.90
33994;DHT22;20673;48.980;8.138;2023-12-28T15:20:40;9.10;99.90
33994;DHT22;20673;48.980;8.138;2023-12-28T15:23:07;9.20;99.90
33994;DHT22;20673;48.980;8.138;2023-12-28T15:25:33;9.20;99.90
33994;DHT22;20673;48.980;8.138;2023-12-28T15:27:59;9.30;99.90
33994;DHT22;20673;48.980;8.138;2023-12-28T15:30:25;9.20;99.90
33994;DHT22;20673;48.980;8.138;2023-12-28T15:32:51;9.20;99.90
33994;DHT22;20673;48.980;8.138;2023-12-28T15:35:17;9.30;99.90
33994;DHT22;20673;48.980;8.138;2023-12-28T15:37:43;9.40;99.90
33994;DHT22;20673;48.980;8.138;2023-12-28T15:40:10;9.30;99.90
33994;DHT22;20673;48.980;8.138;2023-12-28T15:42:36;9.40;99.90
33994;DHT22;20673;48.980;8.138;2023-12-28T15:45:03;9.40;99.90
33994;DHT22;20673;48.980;8.138;2023-12-28T15:47:29;9.50;99.90
33994;DHT22;20673;48.980;8.138;2023-12-28T15:49:55;9.50;99.90